Time;durP1;ratioP1;P1;durP2;ratioP2;P2;SDS_P1;SDS_P2;PMS_P1;PMS_P2;Temp;Humidity;BMP_temperature;BMP_pressure;BME280_temperature;BME280_humidity;BME280_pressure;Samples;Min_cycle;Max_cycle;Signal;HPM_P1;HPM_P2
2022/07/10 00:01:24;;;;;;;6.50;2.17;;;;;;;12.91;76.13;102693.44;6150482;23;20001;-76
2022/07/10 00:03:49;;;;;;;5.28;2.38;;;;;;;12.78;76.50;102693.22;6123816;23;20021;-76
2022/07/10 00:06:19;;;;;;;6.38;2.65;;;;;;;12.85;76.33;102699.91;6150977;23;20006;-77
2022/07/10 00:08:44;;;;;;;7.75;2.25;;;;;;;12.78;76.52;102699.34;6124745;23;20005;-76
2022/07/10 00:11:10;;;;;;;5.22;2.33;;;;;;;12.67;76.98;102700.88;6150359;23;20013;-76
2022/07/10 00:13:35;;;;;;;5.13;2.17;;;;;;;12.69;76.89;102706.94;6124867;23;20483;-76
2022/07/10 00:16:01;;;;;;;5.18;2.00;;;;;;;12.63;77.12;102697.53;6125580;23;20001;-77
2022/07/10 00:18:28;;;;;;;5.38;2.17;;;;;;;12.59;77.44;102697.78;6149951;23;20001;-76
2022/07/10 00:20:53;;;;;;;9.75;2.58;;;;;;;12.61;77.54;102695.91;6152179;23;20335;-77
2022/07/10 00:23:19;;;;;;;3.67;2.00;;;;;;;12.58;77.56;102702.22;6150750;23;20017;-76
2022/07/10 00:25:44;;;;;;;5.93;2.40;;;;;;;12.55;77.72;102697.94;6151071;23;20009;-77
2022/07/10 00:28:11;;;;;;;5.40;2.35;;;;;;;12.55;77.96;102692.66;6151016;23;20009;-77
2022/07/10 00:30:36;;;;;;;3.47;2.17;;;;;;;12.65;78.37;102697.47;6151110;23;20420;-76
2022/07/10 00:33:02;;;;;;;6.70;2.50;;;;;;;12.50;78.09;102689.44;6150948;23;20387;-75
2022/07/10 00:35:27;;;;;;;11.77;2.88;;;;;;;12.48;78.20;102691.28;6150375;23;19997;-77
2022/07/10 00:37:53;;;;;;;6.45;2.33;;;;;;;12.52;78.20;102698.13;6123314;23;20012;-77
2022/07/10 00:40:19;;;;;;;7.28;2.67;;;;;;;12.42;78.58;102681.06;6150319;23;20072;-77
2022/07/10 00:42:45;;;;;;;12.55;3.10;;;;;;;12.41;78.29;102689.06;6152570;23;20047;-75
2022/07/10 00:45:11;;;;;;;8.48;2.70;;;;;;;12.45;78.60;102680.03;6150120;23;20420;-76
2022/07/10 00:47:36;;;;;;;8.70;2.75;;;;;;;12.41;78.59;102679.34;6149868;23;20006;-76
2022/07/10 00:50:02;;;;;;;7.57;3.15;;;;;;;12.42;78.83;102678.41;6152225;23;20040;-75
2022/07/10 00:52:28;;;;;;;8.50;3.05;;;;;;;12.36;79.10;102681.34;6151173;23;20327;-76
2022/07/10 00:54:54;;;;;;;9.05;3.47;;;;;;;12.31;79.36;102683.38;6152076;23;20029;-76
2022/07/10 00:57:21;;;;;;;5.63;3.40;;;;;;;12.31;79.64;102682.53;6151433;23;20339;-77
2022/07/10 00:59:48;;;;;;;9.55;3.40;;;;;;;12.27;79.60;102679.19;6124111;23;20009;-76
2022/07/10 01:02:15;;;;;;;6.22;3.55;;;;;;;12.30;79.99;102671.13;6152135;23;20476;-77
2022/07/10 01:04:41;;;;;;;8.43;3.50;;;;;;;12.27;79.86;102676.56;6120575;23;20097;-77
2022/07/10 01:07:07;;;;;;;7.00;3.35;;;;;;;12.29;80.02;102669.41;6122900;23;20065;-77
2022/07/10 01:09:33;;;;;;;7.40;3.55;;;;;;;12.29;80.02;102665.91;6122746;23;20009;-77
2022/07/10 01:12:01;;;;;;;7.20;3.58;;;;;;;12.34;79.90;102667.38;6123509;23;20006;-77
2022/07/10 01:14:28;;;;;;;7.22;2.85;;;;;;;12.39;80.13;102654.78;6122020;23;20373;-76
2022/07/10 01:16:53;;;;;;;10.02;3.50;;;;;;;12.30;80.31;102652.63;6123790;23;20005;-76
2022/07/10 01:19:19;;;;;;;4.88;2.55;;;;;;;12.35;80.30;102647.97;6122535;23;20565;-76
2022/07/10 01:21:44;;;;;;;7.68;3.15;;;;;;;12.38;80.57;102653.09;6122866;23;20409;-77
2022/07/10 01:24:10;;;;;;;7.55;2.80;;;;;;;12.34;80.73;102642.78;6123253;23;20088;-75
2022/07/10 01:26:36;;;;;;;6.43;2.55;;;;;;;12.32;80.33;102637.56;6122824;23;20337;-76
2022/07/10 01:29:07;;;;;;;4.50;2.85;;;;;;;12.34;79.94;102640.97;6121829;23;20002;-76
2022/07/10 01:31:32;;;;;;;9.57;3.08;;;;;;;12.35;80.96;102636.56;6122283;23;20006;-75
2022/07/10 01:34:00;;;;;;;7.43;3.20;;;;;;;12.33;80.92;102638.44;6121553;23;20012;-76
2022/07/10 01:36:28;;;;;;;8.18;2.90;;;;;;;12.24;81.21;102640.63;6121818;23;20332;-76
2022/07/10 01:38:54;;;;;;;7.95;2.78;;;;;;;12.20;81.30;102638.22;6122002;23;20006;-75
2022/07/10 01:41:20;;;;;;;9.98;3.30;;;;;;;12.18;81.87;102635.66;6120577;23;20520;-77
2022/07/10 01:43:48;;;;;;;7.82;3.28;;;;;;;12.18;81.72;102634.81;6121118;23;20017;-76
2022/07/10 01:46:14;;;;;;;6.38;2.90;;;;;;;12.19;81.34;102633.88;6122463;23;20006;-77
2022/07/10 01:48:41;;;;;;;8.93;2.50;;;;;;;12.16;81.56;102642.81;6143965;23;20431;-76
2022/07/10 01:51:07;;;;;;;4.97;2.47;;;;;;;12.16;82.17;102637.53;6122168;23;20002;-76
2022/07/10 01:53:34;;;;;;;7.07;2.55;;;;;;;12.13;81.78;102642.97;6121172;23;20002;-75
2022/07/10 01:56:11;;;;;;;9.13;2.70;;;;;;;12.16;82.07;102642.81;6121503;23;20009;-77
2022/07/10 01:58:37;;;;;;;4.15;2.30;;;;;;;12.04;82.21;102638.19;6119534;23;20313;-75
2022/07/10 02:01:03;;;;;;;6.65;3.33;;;;;;;12.07;82.50;102643.28;6122157;23;20006;-76
2022/07/10 02:06:13;;;;;;;7.00;2.83;;;;;;;12.02;82.36;102637.41;6151510;23;20465;-76
2022/07/10 02:08:38;;;;;;;6.50;3.45;;;;;;;12.04;82.89;102642.59;6124708;23;20037;-75
2022/07/10 02:11:03;;;;;;;9.20;3.30;;;;;;;12.00;82.77;102641.03;6150495;23;20006;-76
2022/07/10 02:13:29;;;;;;;7.68;2.88;;;;;;;12.05;82.39;102639.03;6150836;23;20009;-75
2022/07/10 02:15:55;;;;;;;7.35;3.10;;;;;;;12.01;82.91;102645.38;6151753;23;20412;-75
2022/07/10 02:18:21;;;;;;;7.50;3.40;;;;;;;11.96;82.98;102648.25;6150261;23;20008;-77
2022/07/10 02:20:47;;;;;;;8.52;3.15;;;;;;;11.95;83.14;102637.78;6152129;23;20338;-76
2022/07/10 02:23:13;;;;;;;6.78;3.20;;;;;;;11.90;82.91;102630.94;6125140;23;20093;-75
2022/07/10 02:25:38;;;;;;;10.20;3.58;;;;;;;11.92;83.03;102629.09;6151462;23;20052;-75
2022/07/10 02:28:04;;;;;;;10.00;3.40;;;;;;;11.92;83.40;102639.63;6125916;23;20420;-76
2022/07/10 02:30:31;;;;;;;9.23;3.45;;;;;;;11.89;83.75;102638.94;6124242;23;20009;-78
2022/07/10 02:32:57;;;;;;;9.02;3.25;;;;;;;11.86;83.36;102629.41;6151639;23;20005;-77
2022/07/10 02:35:23;;;;;;;6.60;3.47;;;;;;;11.83;83.74;102631.34;6150882;23;20025;-76
2022/07/10 02:37:48;;;;;;;8.43;3.22;;;;;;;11.80;83.80;102631.50;6151151;23;20005;-77
2022/07/10 02:40:13;;;;;;;7.20;3.30;;;;;;;11.76;84.10;102632.56;6151575;23;20328;-76
2022/07/10 02:42:39;;;;;;;10.20;3.28;;;;;;;11.76;84.08;102632.56;6150371;23;20306;-76
2022/07/10 02:45:04;;;;;;;7.63;3.38;;;;;;;11.71;84.22;102627.50;6149412;23;20376;-75
2022/07/10 02:47:30;;;;;;;7.32;3.20;;;;;;;11.73;84.10;102632.72;6150232;23;20084;-75
2022/07/10 02:49:55;;;;;;;9.13;3.20;;;;;;;11.68;84.47;102625.03;6150595;23;20072;-75
2022/07/10 02:52:21;;;;;;;7.25;3.00;;;;;;;11.70;84.03;102627.59;6149664;23;20428;-75
2022/07/10 02:54:48;;;;;;;6.80;2.97;;;;;;;11.70;84.13;102630.22;6150840;23;20004;-76
2022/07/10 02:57:13;;;;;;;6.00;3.10;;;;;;;11.65;84.64;102627.81;6124998;23;20009;-76
2022/07/10 02:59:38;;;;;;;6.75;3.40;;;;;;;11.67;84.71;102630.38;6149309;23;20439;-76
2022/07/10 03:02:04;;;;;;;9.55;3.17;;;;;;;11.69;85.11;102624.09;6150720;23;20084;-76
2022/07/10 03:04:30;;;;;;;7.50;3.40;;;;;;;11.66;85.23;102624.25;6123292;23;20076;-76
2022/07/10 03:06:57;;;;;;;9.93;3.30;;;;;;;11.69;84.91;102625.88;6149448;23;20009;-78
2022/07/10 03:09:22;;;;;;;6.95;2.97;;;;;;;11.62;85.61;102630.63;6124183;23;20009;-76
2022/07/10 03:11:47;;;;;;;8.90;3.30;;;;;;;11.63;85.19;102624.41;6150622;23;20428;-78
2022/07/10 03:14:13;;;;;;;6.30;3.00;;;;;;;11.60;85.21;102616.63;6150210;23;20060;-76
2022/07/10 03:16:38;;;;;;;8.38;3.20;;;;;;;11.51;85.63;102622.38;6150188;23;19997;-75
2022/07/10 03:19:03;;;;;;;9.25;3.38;;;;;;;11.49;86.01;102626.84;6124421;23;20380;-75
2022/07/10 03:21:30;;;;;;;8.35;3.47;;;;;;;11.48;85.73;102618.09;6148980;23;20092;-75
2022/07/10 03:23:56;;;;;;;6.82;3.30;;;;;;;11.44;86.10;102626.22;6151172;23;20376;-75
2022/07/10 03:26:21;;;;;;;7.10;3.05;;;;;;;11.43;86.06;102632.44;6150939;23;20081;-77
2022/07/10 03:28:48;;;;;;;6.40;3.42;;;;;;;11.38;86.15;102626.53;6151197;23;20085;-77
2022/07/10 03:31:14;;;;;;;7.28;3.20;;;;;;;11.35;86.61;102624.06;6151579;23;20001;-77
2022/07/10 03:33:39;;;;;;;9.02;3.67;;;;;;;11.34;86.60;102615.28;6150204;23;20043;-76
2022/07/10 03:36:06;;;;;;;7.50;3.63;;;;;;;11.28;87.01;102621.72;6151379;23;20161;-75
2022/07/10 03:38:32;;;;;;;8.00;3.00;;;;;;;11.30;86.74;102619.88;6124361;23;20009;-76
2022/07/10 03:40:58;;;;;;;6.18;3.10;;;;;;;11.28;87.19;102612.97;6150643;23;20490;-76
2022/07/10 03:43:27;;;;;;;8.52;3.47;;;;;;;11.22;87.39;102608.84;6150605;23;20024;-76
2022/07/10 03:45:52;;;;;;;7.50;3.40;;;;;;;11.28;86.38;102605.91;6151863;23;20004;-78
2022/07/10 03:48:17;;;;;;;8.75;3.58;;;;;;;11.19;87.44;102595.78;6147984;23;20005;-76
2022/07/10 03:50:43;;;;;;;8.90;3.63;;;;;;;11.25;87.49;102600.78;6151267;23;20040;-76
2022/07/10 03:53:08;;;;;;;7.43;3.65;;;;;;;11.21;87.29;102609.78;6150899;23;20005;-76
2022/07/10 03:55:34;;;;;;;7.32;3.90;;;;;;;11.22;87.02;102600.94;6148724;23;19998;-76
2022/07/10 03:58:02;;;;;;;7.28;3.38;;;;;;;11.27;87.38;102606.84;6150951;23;20009;-76
2022/07/10 04:00:28;;;;;;;7.63;3.80;;;;;;;11.25;87.80;102606.06;6149791;23;20008;-76
2022/07/10 04:03:01;;;;;;;9.45;3.50;;;;;;;11.35;87.74;102602.97;6150320;23;20081;-76
2022/07/10 04:05:27;;;;;;;8.25;3.72;;;;;;;11.33;87.22;102608.31;6149864;23;20045;-76
2022/07/10 04:07:53;;;;;;;9.00;3.85;;;;;;;11.33;87.39;102608.31;6151107;23;20001;-76
2022/07/10 04:10:19;;;;;;;9.00;3.85;;;;;;;11.42;87.57;102612.28;6149316;23;20005;-76
2022/07/10 04:12:45;;;;;;;7.70;3.80;;;;;;;11.47;87.97;102610.25;6151464;23;20028;-79
2022/07/10 04:15:10;;;;;;;8.93;3.80;;;;;;;11.54;88.06;102606.38;6150658;23;20029;-77
2022/07/10 04:17:36;;;;;;;7.95;3.50;;;;;;;11.57;87.63;102612.38;6149909;23;20144;-77
2022/07/10 04:20:01;;;;;;;8.10;3.72;;;;;;;11.64;87.94;102612.09;6152445;23;20005;-77
2022/07/10 04:22:27;;;;;;;8.52;4.18;;;;;;;11.64;88.36;102614.72;6151927;23;20006;-75
2022/07/10 04:24:54;;;;;;;8.73;3.55;;;;;;;11.70;87.50;102612.63;6125944;23;20120;-75
2022/07/10 04:27:19;;;;;;;8.80;3.85;;;;;;;11.69;87.68;102608.28;6152305;23;20005;-77
2022/07/10 04:29:48;;;;;;;6.10;3.58;;;;;;;11.72;87.60;102605.50;6153106;23;20052;-76
2022/07/10 04:32:15;;;;;;;9.43;3.75;;;;;;;11.77;87.41;102603.47;6126941;23;20055;-76
2022/07/10 04:34:41;;;;;;;10.85;4.38;;;;;;;11.84;87.39;102594.34;6150716;23;20006;-77
2022/07/10 04:37:07;;;;;;;10.27;4.53;;;;;;;11.93;87.38;102609.69;6152561;23;20431;-77
2022/07/10 04:39:38;;;;;;;14.48;4.65;;;;;;;11.95;87.31;102608.75;6152346;23;20025;-77
2022/07/10 04:42:08;;;;;;;6.38;3.75;;;;;;;12.00;87.07;102609.38;6126715;23;20064;-77
2022/07/10 04:44:36;;;;;;;8.38;4.00;;;;;;;12.02;87.17;102605.75;6151930;23;20032;-76
2022/07/10 04:47:02;;;;;;;9.85;4.10;;;;;;;12.13;86.95;102600.75;6153185;23;20451;-75
2022/07/10 04:49:28;;;;;;;8.75;4.00;;;;;;;12.14;87.14;102598.97;6126366;23;20006;-76
2022/07/10 04:51:54;;;;;;;9.82;3.72;;;;;;;12.20;87.13;102596.00;6125956;23;20009;-77
2022/07/10 04:54:19;;;;;;;6.53;3.88;;;;;;;12.29;86.70;102606.06;6152134;23;20756;-76
2022/07/10 04:56:45;;;;;;;7.93;3.53;;;;;;;12.39;86.44;102616.97;6126612;23;20005;-75
2022/07/10 04:59:11;;;;;;;9.75;3.88;;;;;;;12.44;87.26;102614.97;6150299;23;20007;-77
2022/07/10 05:01:37;;;;;;;9.70;4.30;;;;;;;12.50;86.57;102610.22;6150249;23;20009;-75
2022/07/10 05:04:03;;;;;;;9.45;3.70;;;;;;;12.59;86.75;102614.13;6152015;23;20459;-77
2022/07/10 05:06:28;;;;;;;12.57;4.13;;;;;;;12.68;86.37;102602.22;6150786;23;20001;-77
2022/07/10 05:08:54;;;;;;;10.38;4.28;;;;;;;12.70;86.42;102602.97;6152558;23;20053;-77
2022/07/10 05:11:20;;;;;;;9.48;3.88;;;;;;;12.80;86.16;102604.19;6149909;23;20013;-76
2022/07/10 05:13:48;;;;;;;7.88;3.40;;;;;;;12.90;86.92;102612.47;6152347;23;20009;-76
2022/07/10 05:16:14;;;;;;;8.10;3.78;;;;;;;12.96;86.21;102610.34;6150653;23;20033;-77
2022/07/10 05:18:39;;;;;;;8.70;3.72;;;;;;;13.00;85.82;102609.22;6125299;23;20040;-75
2022/07/10 05:21:05;;;;;;;9.43;3.83;;;;;;;13.11;85.90;102614.75;6151450;23;20009;-77
2022/07/10 05:23:31;;;;;;;10.25;3.83;;;;;;;13.15;86.14;102611.00;6151611;23;20012;-77
2022/07/10 05:25:56;;;;;;;11.35;3.55;;;;;;;13.30;85.19;102611.13;6152040;23;20041;-77
2022/07/10 05:28:22;;;;;;;8.90;3.80;;;;;;;13.32;85.45;102606.59;6150665;23;20012;-77
2022/07/10 05:30:48;;;;;;;8.13;3.40;;;;;;;13.37;84.48;102608.03;6152505;23;20036;-77
2022/07/10 05:33:19;;;;;;;12.27;3.60;;;;;;;13.42;85.65;102605.09;6151598;23;20001;-75
2022/07/10 05:35:44;;;;;;;9.32;3.35;;;;;;;13.44;85.51;102608.50;6152331;23;20009;-77
2022/07/10 05:38:11;;;;;;;8.85;3.63;;;;;;;13.51;85.60;102609.84;6153140;23;20025;-77
2022/07/10 05:40:37;;;;;;;11.20;3.65;;;;;;;13.57;85.31;102601.56;6152979;23;20009;-77
2022/07/10 05:43:03;;;;;;;11.50;3.10;;;;;;;13.65;85.14;102606.44;6153220;23;20009;-77
2022/07/10 05:45:29;;;;;;;7.75;3.00;;;;;;;13.70;85.49;102607.00;6151821;23;20005;-77
2022/07/10 05:47:54;;;;;;;7.82;2.97;;;;;;;13.83;85.00;102615.06;6151968;23;20080;-77
2022/07/10 05:50:20;;;;;;;8.25;2.60;;;;;;;13.93;84.31;102610.91;6151241;23;19989;-77
2022/07/10 05:52:48;;;;;;;10.45;2.70;;;;;;;14.02;84.13;102599.81;6152634;23;20006;-76
2022/07/10 05:55:14;;;;;;;7.82;2.60;;;;;;;14.13;83.78;102601.78;6151895;23;20033;-76
2022/07/10 05:57:39;;;;;;;10.15;2.50;;;;;;;14.21;83.57;102602.16;6152182;23;20088;-77
2022/07/10 06:00:06;;;;;;;7.38;2.20;;;;;;;14.33;82.33;102609.34;6150664;23;20045;-76
2022/07/10 06:02:32;;;;;;;7.30;2.20;;;;;;;14.36;81.29;102606.50;6151261;23;20017;-76
2022/07/10 06:04:57;;;;;;;8.07;2.05;;;;;;;14.45;81.26;102610.44;6150444;23;20010;-77
2022/07/10 06:07:22;;;;;;;7.15;1.90;;;;;;;14.53;82.32;102606.38;6152262;23;20001;-76
2022/07/10 06:09:48;;;;;;;10.60;2.33;;;;;;;14.64;81.32;102608.34;6152239;23;20012;-76
2022/07/10 06:12:15;;;;;;;9.73;2.15;;;;;;;14.70;80.42;102602.66;6126875;23;20064;-76
2022/07/10 06:14:40;;;;;;;6.60;1.83;;;;;;;14.72;80.44;102606.06;6150216;23;20005;-76
2022/07/10 06:17:06;;;;;;;9.82;2.25;;;;;;;14.82;80.03;102601.88;6151241;23;20336;-76
2022/07/10 06:19:33;;;;;;;7.00;2.22;;;;;;;14.87;79.69;102605.09;6149092;23;20002;-76
2022/07/10 06:24:43;;;;;;;7.72;2.10;;;;;;;15.22;78.48;102604.63;6152208;23;20028;-75
2022/07/10 06:27:09;;;;;;;8.15;2.20;;;;;;;15.39;76.46;102601.69;6149957;23;20009;-75
2022/07/10 06:29:35;;;;;;;7.50;2.00;;;;;;;15.54;75.54;102608.63;6123390;23;20357;-76
2022/07/10 06:32:01;;;;;;;7.30;1.80;;;;;;;15.69;74.90;102604.13;6150567;23;20076;-76
2022/07/10 06:34:26;;;;;;;7.22;2.17;;;;;;;15.74;74.23;102602.03;6150725;23;20339;-76
2022/07/10 06:36:52;;;;;;;11.45;2.17;;;;;;;15.85;73.93;102599.47;6125082;23;20009;-76
2022/07/10 06:39:17;;;;;;;11.15;2.08;;;;;;;15.92;72.68;102602.56;6123804;23;20548;-75
2022/07/10 06:41:42;;;;;;;7.93;1.90;;;;;;;15.98;72.20;102596.81;6151314;23;20446;-76
2022/07/10 06:44:08;;;;;;;7.35;1.75;;;;;;;16.02;73.07;102585.06;6149843;23;20030;-75
2022/07/10 06:46:35;;;;;;;7.78;1.80;;;;;;;16.05;72.51;102595.47;6151019;23;20328;-77
2022/07/10 06:49:01;;;;;;;8.82;1.70;;;;;;;16.04;72.91;102588.47;6151601;23;20044;-76
2022/07/10 06:51:26;;;;;;;7.30;1.60;;;;;;;16.13;73.79;102593.13;6150615;23;20002;-77
2022/07/10 06:53:52;;;;;;;6.75;1.98;;;;;;;16.17;74.21;102589.31;6151709;23;20012;-77
2022/07/10 06:56:18;;;;;;;7.20;1.80;;;;;;;16.24;73.17;102587.91;6126310;23;20012;-78
2022/07/10 06:58:43;;;;;;;8.88;1.90;;;;;;;16.26;71.79;102593.13;6151536;23;20005;-81
2022/07/10 07:01:09;;;;;;;8.20;2.00;;;;;;;16.35;72.29;102597.78;6152052;23;20491;-76
2022/07/10 07:03:36;;;;;;;9.27;2.22;;;;;;;16.45;72.18;102595.34;6148886;23;20053;-77
2022/07/10 07:06:02;;;;;;;6.60;1.63;;;;;;;16.54;70.18;102603.50;6151567;23;20002;-77
2022/07/10 07:08:30;;;;;;;8.82;1.95;;;;;;;16.70;69.95;102594.44;6150844;23;20006;-79
2022/07/10 07:10:55;;;;;;;11.43;2.10;;;;;;;16.89;69.58;102592.19;6151691;23;20036;-80
2022/07/10 07:13:22;;;;;;;8.02;2.03;;;;;;;17.06;68.04;102601.56;6123764;23;20033;-76
2022/07/10 07:15:58;;;;;;;9.80;1.90;;;;;;;17.28;67.62;102598.19;6151942;23;20483;-76
2022/07/10 07:18:31;;;;;;;9.70;2.15;;;;;;;17.48;67.33;102595.72;6149782;23;20502;-77
2022/07/10 07:23:44;;;;;;;7.28;1.75;;;;;;;17.81;67.68;102603.00;6151774;23;20066;-76
2022/07/10 07:26:10;;;;;;;9.52;2.08;;;;;;;17.71;67.10;102596.69;6150962;23;20014;-75
2022/07/10 07:28:35;;;;;;;8.70;1.80;;;;;;;17.76;66.47;102609.66;6124401;23;20039;-76
2022/07/10 07:31:01;;;;;;;8.23;1.98;;;;;;;17.75;66.31;102595.50;6150431;23;20005;-76
2022/07/10 07:33:26;;;;;;;7.95;1.75;;;;;;;17.88;66.36;102605.19;6147906;23;20001;-76
2022/07/10 07:35:52;;;;;;;9.82;1.90;;;;;;;17.85;66.04;102614.25;6151193;23;20407;-76
2022/07/10 07:38:17;;;;;;;9.23;2.22;;;;;;;17.87;66.47;102601.69;6150130;23;20455;-76
2022/07/10 07:40:44;;;;;;;8.75;1.77;;;;;;;17.89;66.57;102599.75;6124173;23;20367;-77
2022/07/10 07:43:11;;;;;;;13.05;2.47;;;;;;;17.99;66.82;102590.06;6150908;23;20010;-76
2022/07/10 07:45:37;;;;;;;8.70;2.20;;;;;;;17.96;66.66;102603.63;6149867;23;20005;-77
2022/07/10 07:48:03;;;;;;;7.85;2.22;;;;;;;18.03;66.66;102604.88;6150942;23;20002;-76
2022/07/10 07:50:32;;;;;;;8.55;2.30;;;;;;;18.15;67.13;102595.06;6151061;23;20021;-76
2022/07/10 07:52:59;;;;;;;9.88;2.53;;;;;;;18.17;65.98;102596.66;6153359;23;20008;-76
2022/07/10 07:55:25;;;;;;;8.55;2.53;;;;;;;18.26;64.62;102602.22;6150077;23;20483;-76
2022/07/10 07:57:57;;;;;;;11.93;2.80;;;;;;;18.22;65.13;102603.44;6153336;23;20059;-77
2022/07/10 08:00:26;;;;;;;8.85;2.88;;;;;;;18.10;65.12;102599.91;6152431;23;20001;-76
2022/07/10 08:02:53;;;;;;;10.10;3.10;;;;;;;18.05;65.45;102599.44;6152505;23;20013;-76
2022/07/10 08:05:19;;;;;;;7.32;2.72;;;;;;;17.94;65.25;102608.22;6152394;23;20336;-77
2022/07/10 08:07:47;;;;;;;10.40;3.00;;;;;;;17.97;65.51;102607.97;6152035;23;20025;-77
2022/07/10 08:10:15;;;;;;;10.23;3.17;;;;;;;17.84;65.23;102604.56;6152634;23;20096;-76
2022/07/10 08:12:42;;;;;;;12.00;3.05;;;;;;;17.95;66.22;102598.41;6125657;23;20064;-76
2022/07/10 08:15:09;;;;;;;8.60;3.50;;;;;;;17.87;66.53;102601.69;6151488;23;20005;-76
2022/07/10 08:17:34;;;;;;;12.27;3.65;;;;;;;17.90;66.01;102593.44;6125681;23;20001;-76
2022/07/10 08:20:00;;;;;;;8.68;3.53;;;;;;;17.89;66.43;102589.09;6152351;23;20006;-76
2022/07/10 08:22:26;;;;;;;13.70;3.78;;;;;;;18.01;65.97;102585.50;6151263;23;20001;-76
2022/07/10 08:24:51;;;;;;;11.25;3.65;;;;;;;18.05;64.98;102589.63;6126233;23;20002;-76
2022/07/10 08:27:17;;;;;;;13.45;4.35;;;;;;;18.21;65.71;102591.06;6151849;23;20021;-76
2022/07/10 08:29:43;;;;;;;8.82;3.60;;;;;;;18.23;64.80;102589.97;6152211;23;20032;-76
2022/07/10 08:32:09;;;;;;;16.85;4.15;;;;;;;18.33;65.22;102603.41;6152367;23;20069;-76
2022/07/10 08:34:35;;;;;;;9.93;3.22;;;;;;;18.47;64.96;102596.06;6151860;23;20585;-76
2022/07/10 08:37:00;;;;;;;11.23;3.00;;;;;;;18.53;65.30;102594.72;6151636;23;20375;-76
2022/07/10 08:39:28;;;;;;;10.55;3.38;;;;;;;18.61;65.48;102597.59;6151752;23;20056;-76
2022/07/10 08:41:53;;;;;;;8.70;2.58;;;;;;;18.55;64.25;102592.78;6150587;23;20340;-76
2022/07/10 08:44:19;;;;;;;8.63;2.80;;;;;;;18.46;64.99;102588.19;6151112;23;20005;-76
2022/07/10 08:46:46;;;;;;;7.30;2.60;;;;;;;18.40;64.31;102593.97;6152787;23;20002;-76
2022/07/10 08:49:13;;;;;;;10.90;2.63;;;;;;;18.35;64.59;102602.34;6153168;23;20309;-76
2022/07/10 08:51:50;;;;;;;9.60;2.80;;;;;;;18.16;66.09;102589.63;6151779;23;20012;-77
2022/07/10 08:54:18;;;;;;;10.27;2.67;;;;;;;18.21;65.90;102593.75;6152861;23;20009;-77
2022/07/10 08:56:44;;;;;;;7.85;3.05;;;;;;;18.26;65.66;102597.72;6153073;23;20001;-77
2022/07/10 08:59:12;;;;;;;9.60;2.95;;;;;;;18.34;66.51;102599.78;6151890;23;20016;-77
2022/07/10 09:01:38;;;;;;;8.70;2.55;;;;;;;18.33;65.10;102603.41;6151554;23;20009;-77
2022/07/10 09:04:03;;;;;;;12.43;3.00;;;;;;;18.44;65.11;102595.44;6152447;23;20022;-77
2022/07/10 09:06:30;;;;;;;8.25;2.72;;;;;;;18.58;64.37;102597.84;6125124;23;20041;-77
2022/07/10 09:09:05;;;;;;;7.13;2.83;;;;;;;18.66;63.41;102590.13;6153195;23;20005;-78
2022/07/10 09:11:32;;;;;;;7.07;2.97;;;;;;;18.64;63.74;102593.88;6151150;23;20011;-76
2022/07/10 09:14:07;;;;;;;7.18;2.45;;;;;;;18.61;64.62;102592.28;6152464;23;20005;-77
2022/07/10 09:16:36;;;;;;;6.30;2.40;;;;;;;18.60;63.97;102590.56;6151168;23;20005;-77
2022/07/10 09:19:21;;;;;;;12.02;2.88;;;;;;;18.74;64.52;102587.66;6151127;23;20001;-77
2022/07/10 09:21:51;;;;;;;8.43;2.60;;;;;;;18.73;64.86;102585.97;6125863;23;20045;-77
2022/07/10 09:24:20;;;;;;;6.70;2.38;;;;;;;18.93;64.44;102580.84;6150968;23;20009;-77
2022/07/10 09:27:03;;;;;;;8.30;2.95;;;;;;;18.87;63.87;102581.38;6151575;23;20060;-77
2022/07/10 09:29:32;;;;;;;7.88;2.75;;;;;;;18.90;64.19;102575.78;6151217;23;20335;-77
2022/07/10 09:32:02;;;;;;;7.18;2.50;;;;;;;18.75;64.95;102578.69;6151950;23;20335;-77
2022/07/10 09:34:47;;;;;;;8.32;2.50;;;;;;;18.77;65.19;102571.41;6150821;23;20086;-77
2022/07/10 09:37:19;;;;;;;5.80;2.05;;;;;;;18.75;64.95;102573.38;6152657;23;20001;-77
2022/07/10 09:39:53;;;;;;;6.10;2.22;;;;;;;18.77;64.13;102565.22;6151977;23;20035;-77
2022/07/10 09:42:48;;;;;;;4.28;1.80;;;;;;;18.92;64.44;102573.81;6151238;23;20008;-76
2022/07/10 09:45:17;;;;;;;5.78;2.13;;;;;;;18.79;63.66;102571.28;6127551;23;20010;-77
2022/07/10 09:47:53;;;;;;;6.57;2.20;;;;;;;18.72;64.32;102562.09;6151566;23;20033;-76
2022/07/10 09:50:34;;;;;;;7.55;2.40;;;;;;;18.72;64.90;102576.28;6151707;23;20008;-76
2022/07/10 09:53:05;;;;;;;5.50;1.90;;;;;;;18.63;64.60;102566.38;6152145;23;20010;-76
2022/07/10 09:55:35;;;;;;;5.45;2.10;;;;;;;18.77;64.35;102565.22;6151579;23;20013;-76
2022/07/10 09:58:06;;;;;;;6.50;2.17;;;;;;;18.96;63.36;102561.94;6153427;23;20005;-76
2022/07/10 10:00:40;;;;;;;6.47;2.30;;;;;;;19.30;62.57;102552.81;6151819;23;20001;-76
2022/07/10 10:03:13;;;;;;;10.98;2.45;;;;;;;19.34;61.99;102558.75;6152546;23;20005;-76
2022/07/10 10:05:58;;;;;;;5.22;2.42;;;;;;;19.46;62.08;102565.72;6125128;23;20013;-76
2022/07/10 10:08:43;;;;;;;5.50;2.47;;;;;;;19.26;62.66;102562.06;6124670;23;20420;-76
2022/07/10 10:11:13;;;;;;;5.50;2.40;;;;;;;19.20;63.53;102565.22;6154826;23;20048;-77
2022/07/10 10:13:41;;;;;;;6.80;2.20;;;;;;;19.36;62.86;102557.66;6152333;23;20442;-75
2022/07/10 10:16:09;;;;;;;6.68;2.47;;;;;;;19.68;61.57;102567.47;6125153;23;20032;-76
2022/07/10 10:18:36;;;;;;;6.05;2.20;;;;;;;19.93;61.54;102545.66;6151719;23;20002;-76
2022/07/10 10:21:06;;;;;;;6.95;2.40;;;;;;;20.09;60.36;102553.22;6153242;23;20473;-76
2022/07/10 10:23:34;;;;;;;5.35;2.30;;;;;;;20.07;59.34;102549.81;6151494;23;20344;-76
2022/07/10 10:25:59;;;;;;;6.32;2.40;;;;;;;19.95;59.47;102551.72;6152249;23;20071;-76
2022/07/10 10:28:25;;;;;;;5.38;2.30;;;;;;;19.94;60.59;102549.19;6151703;23;20010;-76
2022/07/10 10:31:01;;;;;;;6.90;2.53;;;;;;;19.84;60.68;102551.81;6125127;23;20080;-77
2022/07/10 10:33:36;;;;;;;7.97;2.65;;;;;;;19.83;60.93;102542.09;6152674;23;20262;-77
2022/07/10 10:36:05;;;;;;;6.68;2.60;;;;;;;20.03;60.96;102545.72;6152889;23;20005;-77
2022/07/10 10:38:51;;;;;;;4.95;2.30;;;;;;;20.28;59.70;102547.09;6153629;23;20010;-77
2022/07/10 10:41:27;;;;;;;5.40;2.25;;;;;;;20.64;60.46;102546.53;6152737;23;20340;-77
2022/07/10 10:44:09;;;;;;;6.80;2.00;;;;;;;20.97;58.81;102547.13;6150592;23;20008;-77
2022/07/10 10:46:35;;;;;;;4.75;2.10;;;;;;;21.01;56.39;102543.19;6152024;23;20428;-77
2022/07/10 10:49:06;;;;;;;4.22;1.70;;;;;;;21.00;57.17;102538.81;6151956;23;20029;-78
2022/07/10 10:52:00;;;;;;;5.63;2.00;;;;;;;21.22;57.72;102543.91;6150549;23;20073;-77
2022/07/10 10:54:28;;;;;;;4.55;2.30;;;;;;;21.20;56.82;102536.97;6152569;23;20005;-77
2022/07/10 10:57:13;;;;;;;5.88;2.10;;;;;;;21.25;58.38;102540.97;6150566;23;20340;-78
2022/07/10 10:59:51;;;;;;;39.08;4.50;;;;;;;21.31;57.97;102534.22;6151485;23;20136;-78
2022/07/10 11:02:30;;;;;;;139.45;10.35;;;;;;;21.28;56.47;102537.19;6151414;23;20032;-77
2022/07/10 11:05:11;;;;;;;10.80;2.17;;;;;;;21.21;57.82;102534.19;6152105;23;20478;-78
2022/07/10 11:07:59;;;;;;;5.75;1.70;;;;;;;21.27;57.86;102535.47;6152008;23;20061;-78
2022/07/10 11:10:39;;;;;;;8.95;1.77;;;;;;;21.05;56.90;102536.56;6153458;23;20005;-77
2022/07/10 11:13:13;;;;;;;21.63;1.90;;;;;;;21.19;57.40;102527.25;6126414;23;20009;-77
2022/07/10 11:15:52;;;;;;;68.93;5.53;;;;;;;21.20;56.83;102524.44;6150323;23;20009;-77
2022/07/10 11:18:22;;;;;;;4.53;1.58;;;;;;;21.19;56.38;102522.75;6154508;23;20001;-77
2022/07/10 11:20:53;;;;;;;6.07;1.50;;;;;;;21.25;57.02;102530.28;6151757;23;20435;-74
2022/07/10 11:23:36;;;;;;;114.90;11.75;;;;;;;21.34;56.51;102517.84;6125247;23;20005;-76
2022/07/10 11:26:13;;;;;;;44.22;5.10;;;;;;;21.54;56.86;102515.97;6125015;23;20402;-76
2022/07/10 11:28:50;;;;;;;2.88;1.52;;;;;;;21.74;56.82;102511.44;6151473;23;20475;-77
2022/07/10 11:31:21;;;;;;;12.32;1.80;;;;;;;21.88;55.76;102517.16;6125572;23;20372;-76
2022/07/10 11:33:48;;;;;;;5.18;1.52;;;;;;;21.68;54.91;102512.00;6149894;23;20388;-76
2022/07/10 11:36:18;;;;;;;5.97;1.60;;;;;;;21.70;54.02;102510.88;6125591;23;20010;-76